aviador You're here:

KIXD Decoded Metar

OLATHE/INDUSTRIA in KS, USA
Report Time2018-01-22 11:53:00
UTC Time2018-01-22 11:57:33
Flight Rules vfr VFR
Wind200° at 13 kt
W.Decomp.*RWY 18: 12.5 kt HW 3.6 kt RCW
RWY 22: 11.9 kt HW 5.3 kt LCW
W.Rank200° ranks 9
Current wind is above 200° avg. (10.7)
Visibility9999 m
Phenomena:N/A
Clouds:Scattered 035 Hf
Expected CloudBase > 400 ft AGL from Temp-Dew spread
CeilingNone
Temp02°C (ISA -11)
Dew Point01°C (93% RH)
AAT-4.5°C
QNH999 hPa
Density Alt390 ft
Elevation1,122 ft
Report Wrong Elevation
Raw Report
METAR KIXD 221153Z 20013KT 10SM SCT035 02/01 A2950 RMK AO2 SLP987
60000 70004 T00220011 10111 20022 53010=

Extra information for KIXD:More info

Metar Taf Metar & Taf Last 4 Metars F.Rules Stats Wind Profile Meteogram Temp Stats Airport Information Weather charts Add Link Nearby VenuesMetar ALERT Operation Metar Decoded Social comments

AIRNAV info for KIXD